Canaan, Arkansas
Current Conditions -  °F | °C
As of 2:55 PM on Tuesday 25 Nov 2014 (Local Time) from KFLP Reporting Station
Clear Clear  
Wind Chill: 45°   Ceiling: Unl
Heat Index: 48°   Visibility: 10mi
Dew Point: 19°   Wind: 7mph
Humidity: 32%   Direction: 30°NNE
Pressure: 30.15"   Gusts: NA
Location:  35.9407°N, 92.655°W
Report Text: KFLP 252055Z AUTO 03006KT 10SM CLR 09/M07 A3015 RMK AO1 57030
Loading
Personal Weather Stations






























Interactive Weather Map New forecast layout! Learn more

10-Day Weather Forecast

Advertisements
Track Severe Weather on mobile